sensor_id;sensor_type;location;lat;lon;timestamp;pressure;altitude;pressure_sealevel;temperature;humidity
55301;BME280;58302;51.446;-2.000;2022-11-20T00:01:31;100235.56;;;5.36;100.00
55301;BME280;58302;51.446;-2.000;2022-11-20T00:03:58;100233.69;;;5.36;100.00
55301;BME280;58302;51.446;-2.000;2022-11-20T00:06:26;100231.09;;;5.41;100.00
55301;BME280;58302;51.446;-2.000;2022-11-20T00:08:54;100228.75;;;5.45;100.00
55301;BME280;58302;51.446;-2.000;2022-11-20T00:11:22;100225.81;;;5.46;100.00
55301;BME280;58302;51.446;-2.000;2022-11-20T00:13:51;100227.19;;;5.49;100.00
55301;BME280;58302;51.446;-2.000;2022-11-20T00:16:20;100219.84;;;5.44;100.00
55301;BME280;58302;51.446;-2.000;2022-11-20T00:18:46;100226.06;;;5.45;100.00
55301;BME280;58302;51.446;-2.000;2022-11-20T00:21:15;100224.88;;;5.41;100.00
55301;BME280;58302;51.446;-2.000;2022-11-20T00:23:41;100223.97;;;5.35;100.00
55301;BME280;58302;51.446;-2.000;2022-11-20T00:26:10;100222.31;;;5.34;100.00
55301;BME280;58302;51.446;-2.000;2022-11-20T00:28:37;100225.84;;;5.35;100.00
55301;BME280;58302;51.446;-2.000;2022-11-20T00:31:06;100225.84;;;5.35;100.00
55301;BME280;58302;51.446;-2.000;2022-11-20T00:33:33;100221.16;;;5.30;100.00
55301;BME280;58302;51.446;-2.000;2022-11-20T00:36:00;100217.88;;;5.28;100.00
55301;BME280;58302;51.446;-2.000;2022-11-20T00:38:27;100211.69;;;5.27;100.00
55301;BME280;58302;51.446;-2.000;2022-11-20T00:41:02;100206.75;;;5.24;100.00
55301;BME280;58302;51.446;-2.000;2022-11-20T00:43:30;100205.00;;;5.18;100.00
55301;BME280;58302;51.446;-2.000;2022-11-20T00:46:04;100195.50;;;5.16;100.00
55301;BME280;58302;51.446;-2.000;2022-11-20T00:48:31;100198.19;;;5.16;100.00
55301;BME280;58302;51.446;-2.000;2022-11-20T00:50:57;100192.59;;;5.17;100.00
55301;BME280;58302;51.446;-2.000;2022-11-20T00:53:24;100191.78;;;5.17;100.00
55301;BME280;58302;51.446;-2.000;2022-11-20T00:55:55;100190.13;;;5.16;100.00
55301;BME280;58302;51.446;-2.000;2022-11-20T00:58:23;100185.78;;;5.15;100.00
55301;BME280;58302;51.446;-2.000;2022-11-20T01:00:49;100184.16;;;5.14;100.00
55301;BME280;58302;51.446;-2.000;2022-11-20T01:03:17;100169.63;;;5.15;100.00
55301;BME280;58302;51.446;-2.000;2022-11-20T01:05:43;100158.03;;;5.14;100.00
55301;BME280;58302;51.446;-2.000;2022-11-20T01:08:09;100160.97;;;5.13;100.00
55301;BME280;58302;51.446;-2.000;2022-11-20T01:10:35;100146.44;;;5.14;100.00
55301;BME280;58302;51.446;-2.000;2022-11-20T01:13:01;100144.09;;;5.17;100.00
55301;BME280;58302;51.446;-2.000;2022-11-20T01:15:45;100141.97;;;5.19;100.00
55301;BME280;58302;51.446;-2.000;2022-11-20T01:18:11;100131.78;;;5.21;100.00
55301;BME280;58302;51.446;-2.000;2022-11-20T01:20:37;100127.25;;;5.22;100.00
55301;BME280;58302;51.446;-2.000;2022-11-20T01:23:03;100130.50;;;5.24;100.00
55301;BME280;58302;51.446;-2.000;2022-11-20T01:25:29;100121.84;;;5.22;100.00
55301;BME280;58302;51.446;-2.000;2022-11-20T01:27:55;100121.50;;;5.18;100.00
55301;BME280;58302;51.446;-2.000;2022-11-20T01:30:21;100115.28;;;5.18;100.00
55301;BME280;58302;51.446;-2.000;2022-11-20T01:32:47;100116.91;;;5.19;100.00
55301;BME280;58302;51.446;-2.000;2022-11-20T01:35:13;100111.53;;;5.19;100.00
55301;BME280;58302;51.446;-2.000;2022-11-20T01:37:39;100110.00;;;5.23;100.00
55301;BME280;58302;51.446;-2.000;2022-11-20T01:40:05;100097.69;;;5.27;100.00
55301;BME280;58302;51.446;-2.000;2022-11-20T01:42:32;100105.16;;;5.37;100.00
55301;BME280;58302;51.446;-2.000;2022-11-20T01:46:12;100096.59;;;5.40;100.00
55301;BME280;58302;51.446;-2.000;2022-11-20T01:48:53;100083.06;;;5.51;100.00
55301;BME280;58302;51.446;-2.000;2022-11-20T01:51:30;100085.06;;;5.56;100.00
55301;BME280;58302;51.446;-2.000;2022-11-20T01:54:05;100082.34;;;5.56;100.00
55301;BME280;58302;51.446;-2.000;2022-11-20T01:56:36;100079.41;;;5.58;100.00
55301;BME280;58302;51.446;-2.000;2022-11-20T01:59:05;100075.66;;;5.59;100.00
55301;BME280;58302;51.446;-2.000;2022-11-20T02:01:33;100065.13;;;5.57;100.00
55301;BME280;58302;51.446;-2.000;2022-11-20T02:03:59;100057.03;;;5.57;100.00
55301;BME280;58302;51.446;-2.000;2022-11-20T02:06:29;100060.06;;;5.61;100.00
55301;BME280;58302;51.446;-2.000;2022-11-20T02:08:57;100054.09;;;5.59;100.00
55301;BME280;58302;51.446;-2.000;2022-11-20T02:11:23;100053.63;;;5.62;100.00
55301;BME280;58302;51.446;-2.000;2022-11-20T02:13:49;100046.34;;;5.62;100.00
55301;BME280;58302;51.446;-2.000;2022-11-20T02:16:27;100053.47;;;5.68;100.00
55301;BME280;58302;51.446;-2.000;2022-11-20T02:18:56;100049.13;;;5.67;100.00
55301;BME280;58302;51.446;-2.000;2022-11-20T02:26:38;100031.97;;;5.73;100.00
55301;BME280;58302;51.446;-2.000;2022-11-20T02:29:06;100025.78;;;5.73;100.00
55301;BME280;58302;51.446;-2.000;2022-11-20T02:31:38;100029.13;;;5.80;100.00
55301;BME280;58302;51.446;-2.000;2022-11-20T02:34:05;100030.59;;;5.88;100.00
55301;BME280;58302;51.446;-2.000;2022-11-20T02:36:33;100016.53;;;5.86;100.00
55301;BME280;58302;51.446;-2.000;2022-11-20T02:39:02;100001.03;;;5.93;100.00
55301;BME280;58302;51.446;-2.000;2022-11-20T02:41:36;99995.16;;;5.96;100.00
55301;BME280;58302;51.446;-2.000;2022-11-20T02:44:04;99993.84;;;5.98;100.00
55301;BME280;58302;51.446;-2.000;2022-11-20T02:46:31;99998.50;;;6.03;100.00
55301;BME280;58302;51.446;-2.000;2022-11-20T02:48:58;99996.63;;;6.03;100.00
55301;BME280;58302;51.446;-2.000;2022-11-20T02:51:24;99985.84;;;6.03;100.00
55301;BME280;58302;51.446;-2.000;2022-11-20T02:53:50;99985.34;;;6.06;100.00
55301;BME280;58302;51.446;-2.000;2022-11-20T02:56:16;99980.78;;;6.07;100.00
55301;BME280;58302;51.446;-2.000;2022-11-20T02:58:42;99985.34;;;6.06;100.00
55301;BME280;58302;51.446;-2.000;2022-11-20T03:01:08;99985.09;;;6.08;100.00
55301;BME280;58302;51.446;-2.000;2022-11-20T03:03:34;99966.47;;;6.06;100.00
55301;BME280;58302;51.446;-2.000;2022-11-20T03:06:00;99976.44;;;6.06;100.00
55301;BME280;58302;51.446;-2.000;2022-11-20T03:08:26;99959.19;;;6.07;100.00
55301;BME280;58302;51.446;-2.000;2022-11-20T03:10:52;99964.84;;;6.05;100.00
55301;BME280;58302;51.446;-2.000;2022-11-20T03:13:18;99954.06;;;6.05;100.00
55301;BME280;58302;51.446;-2.000;2022-11-20T03:15:44;99954.59;;;6.07;100.00
55301;BME280;58302;51.446;-2.000;2022-11-20T03:18:10;99950.84;;;6.08;100.00
55301;BME280;58302;51.446;-2.000;2022-11-20T03:20:36;99946.25;;;6.09;100.00
55301;BME280;58302;51.446;-2.000;2022-11-20T03:23:02;99947.66;;;6.12;100.00
55301;BME280;58302;51.446;-2.000;2022-11-20T03:25:28;99935.81;;;6.13;100.00
55301;BME280;58302;51.446;-2.000;2022-11-20T03:27:54;99939.06;;;6.15;100.00
55301;BME280;58302;51.446;-2.000;2022-11-20T03:30:20;99938.25;;;6.14;100.00
55301;BME280;58302;51.446;-2.000;2022-11-20T03:32:46;99934.16;;;6.12;100.00
55301;BME280;58302;51.446;-2.000;2022-11-20T03:35:12;99936.34;;;6.15;100.00
55301;BME280;58302;51.446;-2.000;2022-11-20T03:37:38;99933.66;;;6.15;100.00
55301;BME280;58302;51.446;-2.000;2022-11-20T03:40:05;99930.97;;;6.15;100.00
55301;BME280;58302;51.446;-2.000;2022-11-20T03:42:31;99934.25;;;6.17;100.00
55301;BME280;58302;51.446;-2.000;2022-11-20T03:45:16;99937.44;;;6.14;100.00
55301;BME280;58302;51.446;-2.000;2022-11-20T03:47:43;99930.16;;;6.14;100.00
55301;BME280;58302;51.446;-2.000;2022-11-20T03:50:12;99931.78;;;6.15;100.00
55301;BME280;58302;51.446;-2.000;2022-11-20T03:52:39;99925.56;;;6.15;100.00
55301;BME280;58302;51.446;-2.000;2022-11-20T03:55:06;99930.72;;;6.16;100.00
55301;BME280;58302;51.446;-2.000;2022-11-20T03:57:32;99927.44;;;6.14;100.00
55301;BME280;58302;51.446;-2.000;2022-11-20T03:59:59;99923.13;;;6.13;100.00
55301;BME280;58302;51.446;-2.000;2022-11-20T04:02:24;99926.88;;;6.12;100.00
55301;BME280;58302;51.446;-2.000;2022-11-20T04:04:50;99933.44;;;6.16;100.00
55301;BME280;58302;51.446;-2.000;2022-11-20T04:07:16;99932.38;;;6.17;100.00
55301;BME280;58302;51.446;-2.000;2022-11-20T04:09:42;99939.66;;;6.17;100.00
55301;BME280;58302;51.446;-2.000;2022-11-20T04:12:08;99928.03;;;6.16;100.00
55301;BME280;58302;51.446;-2.000;2022-11-20T04:14:34;99934.31;;;6.22;100.00
55301;BME280;58302;51.446;-2.000;2022-11-20T04:17:00;99938.78;;;6.33;100.00
55301;BME280;58302;51.446;-2.000;2022-11-20T04:19:26;99931.78;;;6.37;100.00
55301;BME280;58302;51.446;-2.000;2022-11-20T04:21:52;99925.50;;;6.48;100.00
55301;BME280;58302;51.446;-2.000;2022-11-20T04:24:18;99924.97;;;6.51;100.00
55301;BME280;58302;51.446;-2.000;2022-11-20T04:26:44;99921.47;;;6.51;100.00
55301;BME280;58302;51.446;-2.000;2022-11-20T04:29:11;99906.34;;;6.50;100.00
55301;BME280;58302;51.446;-2.000;2022-11-20T04:31:37;99905.53;;;6.49;100.00
55301;BME280;58302;51.446;-2.000;2022-11-20T04:34:05;99910.34;;;6.47;100.00
55301;BME280;58302;51.446;-2.000;2022-11-20T04:36:32;99908.97;;;6.45;100.00
55301;BME280;58302;51.446;-2.000;2022-11-20T04:39:01;99907.28;;;6.39;100.00
55301;BME280;58302;51.446;-2.000;2022-11-20T04:41:30;99915.31;;;6.33;100.00
55301;BME280;58302;51.446;-2.000;2022-11-20T04:43:59;99911.72;;;6.28;100.00
55301;BME280;58302;51.446;-2.000;2022-11-20T04:46:28;99914.44;;;6.28;100.00
55301;BME280;58302;51.446;-2.000;2022-11-20T04:48:55;99916.53;;;6.26;100.00
55301;BME280;58302;51.446;-2.000;2022-11-20T04:51:21;99916.81;;;6.24;100.00
55301;BME280;58302;51.446;-2.000;2022-11-20T04:53:47;99921.72;;;6.27;100.00
55301;BME280;58302;51.446;-2.000;2022-11-20T04:56:13;99923.66;;;6.32;100.00
55301;BME280;58302;51.446;-2.000;2022-11-20T04:58:40;99921.53;;;6.34;100.00
55301;BME280;58302;51.446;-2.000;2022-11-20T05:01:11;99918.56;;;6.36;100.00
55301;BME280;58302;51.446;-2.000;2022-11-20T05:03:38;99919.69;;;6.40;100.00
55301;BME280;58302;51.446;-2.000;2022-11-20T05:06:05;99912.97;;;6.42;100.00
55301;BME280;58302;51.446;-2.000;2022-11-20T05:08:32;99908.97;;;6.45;100.00
55301;BME280;58302;51.446;-2.000;2022-11-20T05:13:32;99916.06;;;6.51;100.00
55301;BME280;58302;51.446;-2.000;2022-11-20T05:16:08;99924.78;;;6.58;100.00
55301;BME280;58302;51.446;-2.000;2022-11-20T05:18:35;99926.16;;;6.60;100.00
55301;BME280;58302;51.446;-2.000;2022-11-20T05:21:03;99923.66;;;6.54;100.00
55301;BME280;58302;51.446;-2.000;2022-11-20T05:23:30;99923.47;;;6.60;100.00
55301;BME280;58302;51.446;-2.000;2022-11-20T05:25:57;99941.44;;;6.72;100.00
55301;BME280;58302;51.446;-2.000;2022-11-20T05:28:24;99933.25;;;6.67;100.00
55301;BME280;58302;51.446;-2.000;2022-11-20T05:30:50;99930.16;;;6.58;100.00
55301;BME280;58302;51.446;-2.000;2022-11-20T05:33:17;99925.28;;;6.55;100.00
55301;BME280;58302;51.446;-2.000;2022-11-20T05:35:43;99933.69;;;6.58;100.00
55301;BME280;58302;51.446;-2.000;2022-11-20T05:38:09;99935.78;;;6.51;100.00
55301;BME280;58302;51.446;-2.000;2022-11-20T05:40:35;99931.06;;;6.42;100.00
55301;BME280;58302;51.446;-2.000;2022-11-20T05:43:03;99929.81;;;6.27;100.00
55301;BME280;58302;51.446;-2.000;2022-11-20T05:45:29;99933.72;;;6.20;100.00
55301;BME280;58302;51.446;-2.000;2022-11-20T05:47:58;99931.41;;;6.06;100.00
55301;BME280;58302;51.446;-2.000;2022-11-20T05:50:25;99930.91;;;5.93;100.00
55301;BME280;58302;51.446;-2.000;2022-11-20T05:52:50;99931.97;;;5.75;100.00
55301;BME280;58302;51.446;-2.000;2022-11-20T05:55:16;99930.09;;;5.59;100.00
55301;BME280;58302;51.446;-2.000;2022-11-20T05:57:42;99934.19;;;5.44;100.00
55301;BME280;58302;51.446;-2.000;2022-11-20T06:00:09;99936.63;;;5.29;100.00
55301;BME280;58302;51.446;-2.000;2022-11-20T06:02:35;99942.47;;;5.26;100.00
55301;BME280;58302;51.446;-2.000;2022-11-20T06:05:02;99942.09;;;5.17;100.00
55301;BME280;58302;51.446;-2.000;2022-11-20T06:07:28;99940.19;;;5.18;100.00
55301;BME280;58302;51.446;-2.000;2022-11-20T06:09:54;99949.91;;;5.19;100.00
55301;BME280;58302;51.446;-2.000;2022-11-20T06:12:19;99941.28;;;5.34;100.00
55301;BME280;58302;51.446;-2.000;2022-11-20T06:14:45;99947.00;;;5.37;100.00
55301;BME280;58302;51.446;-2.000;2022-11-20T06:17:11;99948.88;;;5.53;100.00
55301;BME280;58302;51.446;-2.000;2022-11-20T06:19:37;99956.97;;;5.53;100.00
55301;BME280;58302;51.446;-2.000;2022-11-20T06:22:03;99949.53;;;5.44;100.00
55301;BME280;58302;51.446;-2.000;2022-11-20T06:24:29;99962.34;;;5.37;100.00
55301;BME280;58302;51.446;-2.000;2022-11-20T06:26:55;99965.66;;;5.27;100.00
55301;BME280;58302;51.446;-2.000;2022-11-20T06:29:21;99968.06;;;5.23;100.00
55301;BME280;58302;51.446;-2.000;2022-11-20T06:31:47;99968.31;;;5.22;100.00
55301;BME280;58302;51.446;-2.000;2022-11-20T06:34:13;99969.94;;;5.23;100.00
55301;BME280;58302;51.446;-2.000;2022-11-20T06:36:39;99962.22;;;5.15;100.00
55301;BME280;58302;51.446;-2.000;2022-11-20T06:39:05;99966.41;;;5.22;100.00
55301;BME280;58302;51.446;-2.000;2022-11-20T06:41:31;99958.81;;;5.19;100.00
55301;BME280;58302;51.446;-2.000;2022-11-20T06:43:57;99971.22;;;5.20;100.00
55301;BME280;58302;51.446;-2.000;2022-11-20T06:46:23;99973.75;;;5.27;100.00
55301;BME280;58302;51.446;-2.000;2022-11-20T06:48:49;99970.50;;;5.25;100.00
55301;BME280;58302;51.446;-2.000;2022-11-20T06:51:16;99983.88;;;5.20;100.00
55301;BME280;58302;51.446;-2.000;2022-11-20T06:53:42;99974.31;;;5.12;100.00
55301;BME280;58302;51.446;-2.000;2022-11-20T06:56:08;99973.59;;;5.17;100.00
55301;BME280;58302;51.446;-2.000;2022-11-20T06:58:35;99971.00;;;5.22;100.00
55301;BME280;58302;51.446;-2.000;2022-11-20T07:01:10;99975.41;;;5.28;100.00
55301;BME280;58302;51.446;-2.000;2022-11-20T07:03:37;99980.28;;;5.31;100.00
55301;BME280;58302;51.446;-2.000;2022-11-20T07:06:04;99988.88;;;5.28;100.00
55301;BME280;58302;51.446;-2.000;2022-11-20T07:08:31;99980.38;;;5.36;100.00
55301;BME280;58302;51.446;-2.000;2022-11-20T07:11:02;99982.03;;;5.37;100.00
55301;BME280;58302;51.446;-2.000;2022-11-20T07:13:29;99978.66;;;5.30;100.00
55301;BME280;58302;51.446;-2.000;2022-11-20T07:15:59;99977.50;;;5.26;100.00
55301;BME280;58302;51.446;-2.000;2022-11-20T07:18:25;99978.56;;;5.25;100.00
55301;BME280;58302;51.446;-2.000;2022-11-20T07:20:51;99975.78;;;5.20;100.00
55301;BME280;58302;51.446;-2.000;2022-11-20T07:23:17;99990.13;;;5.09;100.00
55301;BME280;58302;51.446;-2.000;2022-11-20T07:25:43;99985.59;;;4.97;100.00
55301;BME280;58302;51.446;-2.000;2022-11-20T07:28:09;99993.69;;;4.97;100.00
55301;BME280;58302;51.446;-2.000;2022-11-20T07:30:36;99993.56;;;4.92;100.00
55301;BME280;58302;51.446;-2.000;2022-11-20T07:33:02;100002.63;;;4.86;100.00
55301;BME280;58302;51.446;-2.000;2022-11-20T07:35:28;99999.34;;;4.84;100.00
55301;BME280;58302;51.446;-2.000;2022-11-20T07:37:54;100008.25;;;4.85;100.00
55301;BME280;58302;51.446;-2.000;2022-11-20T07:40:20;100001.09;;;4.90;100.00
55301;BME280;58302;51.446;-2.000;2022-11-20T07:42:49;100003.63;;;4.97;100.00
55301;BME280;58302;51.446;-2.000;2022-11-20T07:45:16;100012.53;;;4.97;100.00
55301;BME280;58302;51.446;-2.000;2022-11-20T07:47:42;100008.44;;;4.95;100.00
55301;BME280;58302;51.446;-2.000;2022-11-20T07:50:09;100003.75;;;5.02;100.00
55301;BME280;58302;51.446;-2.000;2022-11-20T07:52:35;100002.31;;;4.99;100.00
55301;BME280;58302;51.446;-2.000;2022-11-20T07:55:01;100010.41;;;4.99;100.00
55301;BME280;58302;51.446;-2.000;2022-11-20T07:57:27;100011.56;;;5.03;100.00
55301;BME280;58302;51.446;-2.000;2022-11-20T07:59:53;100016.25;;;5.08;100.00
55301;BME280;58302;51.446;-2.000;2022-11-20T08:02:19;100026.19;;;5.08;100.00
55301;BME280;58302;51.446;-2.000;2022-11-20T08:04:45;100032.41;;;5.08;100.00
55301;BME280;58302;51.446;-2.000;2022-11-20T08:07:11;100030.53;;;5.09;100.00
55301;BME280;58302;51.446;-2.000;2022-11-20T08:09:37;100021.97;;;5.12;100.00
55301;BME280;58302;51.446;-2.000;2022-11-20T08:12:02;100026.19;;;5.08;100.00
55301;BME280;58302;51.446;-2.000;2022-11-20T08:14:47;100031.94;;;5.11;100.00
55301;BME280;58302;51.446;-2.000;2022-11-20T08:17:13;100030.81;;;5.24;100.00
55301;BME280;58302;51.446;-2.000;2022-11-20T08:19:39;100034.13;;;5.43;100.00
55301;BME280;58302;51.446;-2.000;2022-11-20T08:22:05;100041.28;;;5.66;100.00
55301;BME280;58302;51.446;-2.000;2022-11-20T08:24:31;100032.63;;;5.64;100.00
55301;BME280;58302;51.446;-2.000;2022-11-20T08:26:58;100025.59;;;5.63;100.00
55301;BME280;58302;51.446;-2.000;2022-11-20T08:29:26;100030.66;;;5.76;100.00
55301;BME280;58302;51.446;-2.000;2022-11-20T08:31:52;100038.03;;;5.80;100.00
55301;BME280;58302;51.446;-2.000;2022-11-20T08:34:18;100045.22;;;5.75;100.00
55301;BME280;58302;51.446;-2.000;2022-11-20T08:36:44;100044.56;;;5.68;100.00
55301;BME280;58302;51.446;-2.000;2022-11-20T08:39:13;100051.25;;;5.65;100.00
55301;BME280;58302;51.446;-2.000;2022-11-20T08:41:39;100057.38;;;5.61;100.00
55301;BME280;58302;51.446;-2.000;2022-11-20T08:44:07;100059.97;;;5.55;100.00
55301;BME280;58302;51.446;-2.000;2022-11-20T08:46:37;100060.53;;;5.58;100.00
55301;BME280;58302;51.446;-2.000;2022-11-20T08:49:06;100063.00;;;5.59;100.00
55301;BME280;58302;51.446;-2.000;2022-11-20T08:51:32;100066.75;;;5.58;100.00
55301;BME280;58302;51.446;-2.000;2022-11-20T08:53:58;100059.41;;;5.70;100.00
55301;BME280;58302;51.446;-2.000;2022-11-20T08:56:24;100057.69;;;6.10;100.00
55301;BME280;58302;51.446;-2.000;2022-11-20T08:58:51;100054.97;;;6.43;100.00
55301;BME280;58302;51.446;-2.000;2022-11-20T09:01:22;100056.78;;;6.76;100.00
55301;BME280;58302;51.446;-2.000;2022-11-20T09:03:49;100062.28;;;7.03;100.00
55301;BME280;58302;51.446;-2.000;2022-11-20T09:06:15;100067.16;;;7.28;100.00
55301;BME280;58302;51.446;-2.000;2022-11-20T09:08:42;100072.78;;;7.49;100.00
55301;BME280;58302;51.446;-2.000;2022-11-20T09:11:08;100065.72;;;7.70;100.00
55301;BME280;58302;51.446;-2.000;2022-11-20T09:13:35;100065.13;;;7.95;100.00
55301;BME280;58302;51.446;-2.000;2022-11-20T09:16:06;100071.88;;;8.24;100.00
55301;BME280;58302;51.446;-2.000;2022-11-20T09:18:34;100067.75;;;8.49;100.00
55301;BME280;58302;51.446;-2.000;2022-11-20T09:21:04;100070.34;;;8.76;100.00
55301;BME280;58302;51.446;-2.000;2022-11-20T09:23:32;100071.28;;;9.02;100.00
55301;BME280;58302;51.446;-2.000;2022-11-20T09:26:02;100069.22;;;9.24;100.00
55301;BME280;58302;51.446;-2.000;2022-11-20T09:28:28;100052.72;;;9.41;100.00
55301;BME280;58302;51.446;-2.000;2022-11-20T09:30:55;100043.25;;;9.48;100.00
55301;BME280;58302;51.446;-2.000;2022-11-20T09:33:21;100023.47;;;9.58;100.00
55301;BME280;58302;51.446;-2.000;2022-11-20T09:35:46;100018.59;;;9.75;100.00
55301;BME280;58302;51.446;-2.000;2022-11-20T09:38:12;100011.00;;;9.93;100.00
55301;BME280;58302;51.446;-2.000;2022-11-20T09:41:06;99998.50;;;10.17;100.00
55301;BME280;58302;51.446;-2.000;2022-11-20T09:43:58;100003.13;;;10.27;100.00
55301;BME280;58302;51.446;-2.000;2022-11-20T09:46:29;100010.44;;;10.37;100.00
55301;BME280;58302;51.446;-2.000;2022-11-20T09:52:09;100012.81;;;10.64;100.00
55301;BME280;58302;51.446;-2.000;2022-11-20T09:54:40;100009.28;;;10.73;100.00
55301;BME280;58302;51.446;-2.000;2022-11-20T09:57:11;100004.94;;;10.72;100.00
55301;BME280;58302;51.446;-2.000;2022-11-20T09:59:44;99994.59;;;10.74;100.00
55301;BME280;58302;51.446;-2.000;2022-11-20T10:07:41;99998.84;;;10.96;100.00
55301;BME280;58302;51.446;-2.000;2022-11-20T10:10:42;99996.50;;;10.69;100.00
55301;BME280;58302;51.446;-2.000;2022-11-20T10:13:20;100005.84;;;10.17;100.00
55301;BME280;58302;51.446;-2.000;2022-11-20T10:16:24;100007.44;;;9.72;100.00
55301;BME280;58302;51.446;-2.000;2022-11-20T10:18:54;100003.88;;;9.26;100.00
55301;BME280;58302;51.446;-2.000;2022-11-20T10:26:58;99993.06;;;9.76;100.00
55301;BME280;58302;51.446;-2.000;2022-11-20T10:29:32;99991.97;;;10.39;100.00
55301;BME280;58302;51.446;-2.000;2022-11-20T10:32:07;99982.06;;;10.84;100.00
55301;BME280;58302;51.446;-2.000;2022-11-20T10:34:57;99973.66;;;11.24;100.00
55301;BME280;58302;51.446;-2.000;2022-11-20T10:37:29;99979.16;;;11.58;100.00
55301;BME280;58302;51.446;-2.000;2022-11-20T10:40:01;99981.69;;;11.89;100.00
55301;BME280;58302;51.446;-2.000;2022-11-20T10:42:36;99977.91;;;12.14;100.00
55301;BME280;58302;51.446;-2.000;2022-11-20T10:47:50;99977.75;;;12.29;100.00
55301;BME280;58302;51.446;-2.000;2022-11-20T10:50:20;99985.97;;;12.53;100.00
55301;BME280;58302;51.446;-2.000;2022-11-20T10:58:13;99987.34;;;12.27;100.00
55301;BME280;58302;51.446;-2.000;2022-11-20T11:00:42;99983.41;;;12.38;100.00
55301;BME280;58302;51.446;-2.000;2022-11-20T11:03:25;99985.06;;;12.58;100.00
55301;BME280;58302;51.446;-2.000;2022-11-20T11:08:50;99982.81;;;12.89;100.00
55301;BME280;58302;51.446;-2.000;2022-11-20T11:13:47;99992.34;;;12.91;100.00
55301;BME280;58302;51.446;-2.000;2022-11-20T11:16:21;99991.59;;;13.05;100.00
55301;BME280;58302;51.446;-2.000;2022-11-20T11:18:47;99991.78;;;12.89;100.00
55301;BME280;58302;51.446;-2.000;2022-11-20T11:21:21;99995.41;;;12.85;100.00
55301;BME280;58302;51.446;-2.000;2022-11-20T11:24:00;100002.78;;;12.60;100.00
55301;BME280;58302;51.446;-2.000;2022-11-20T11:26:27;99996.38;;;12.46;100.00
55301;BME280;58302;51.446;-2.000;2022-11-20T11:31:29;100000.25;;;12.40;100.00
55301;BME280;58302;51.446;-2.000;2022-11-20T11:34:12;100000.97;;;12.51;100.00
55301;BME280;58302;51.446;-2.000;2022-11-20T11:36:38;99997.09;;;12.57;100.00
55301;BME280;58302;51.446;-2.000;2022-11-20T11:39:08;100009.13;;;12.27;100.00
55301;BME280;58302;51.446;-2.000;2022-11-20T11:41:36;99998.56;;;12.20;100.00
55301;BME280;58302;51.446;-2.000;2022-11-20T11:47:00;99998.56;;;12.20;100.00
55301;BME280;58302;51.446;-2.000;2022-11-20T11:49:26;99993.53;;;12.32;100.00
55301;BME280;58302;51.446;-2.000;2022-11-20T12:00:06;99972.41;;;12.91;100.00
55301;BME280;58302;51.446;-2.000;2022-11-20T12:05:29;99960.28;;;13.02;100.00
55301;BME280;58302;51.446;-2.000;2022-11-20T12:13:32;99965.72;;;11.72;100.00
55301;BME280;58302;51.446;-2.000;2022-11-20T12:16:02;99960.41;;;11.57;100.00
55301;BME280;58302;51.446;-2.000;2022-11-20T12:18:31;99972.91;;;11.58;100.00
55301;BME280;58302;51.446;-2.000;2022-11-20T12:23:48;99973.06;;;11.38;100.00
55301;BME280;58302;51.446;-2.000;2022-11-20T12:26:55;99969.84;;;11.25;100.00
55301;BME280;58302;51.446;-2.000;2022-11-20T12:40:19;99968.03;;;10.51;100.00
55301;BME280;58302;51.446;-2.000;2022-11-20T12:51:45;99990.69;;;8.77;100.00
55301;BME280;58302;51.446;-2.000;2022-11-20T12:59:39;99967.88;;;8.67;100.00
55301;BME280;58302;51.446;-2.000;2022-11-20T13:02:30;99954.16;;;8.89;100.00
55301;BME280;58302;51.446;-2.000;2022-11-20T13:07:51;99941.78;;;10.06;100.00
55301;BME280;58302;51.446;-2.000;2022-11-20T13:10:44;99934.34;;;10.52;100.00
55301;BME280;58302;51.446;-2.000;2022-11-20T13:18:37;99942.81;;;11.00;100.00
55301;BME280;58302;51.446;-2.000;2022-11-20T13:21:12;99929.81;;;10.92;100.00
55301;BME280;58302;51.446;-2.000;2022-11-20T13:23:39;99946.81;;;10.58;100.00
55301;BME280;58302;51.446;-2.000;2022-11-20T13:26:14;99950.16;;;10.29;100.00
55301;BME280;58302;51.446;-2.000;2022-11-20T13:28:40;99950.69;;;10.16;100.00
55301;BME280;58302;51.446;-2.000;2022-11-20T13:31:27;99956.69;;;10.08;100.00
55301;BME280;58302;51.446;-2.000;2022-11-20T13:33:54;99947.75;;;9.72;100.00
55301;BME280;58302;51.446;-2.000;2022-11-20T13:36:24;99961.59;;;9.45;100.00
55301;BME280;58302;51.446;-2.000;2022-11-20T13:38:53;99955.88;;;9.36;100.00
55301;BME280;58302;51.446;-2.000;2022-11-20T13:46:45;99955.84;;;9.11;100.00
55301;BME280;58302;51.446;-2.000;2022-11-20T13:49:28;99949.28;;;8.91;100.00
55301;BME280;58302;51.446;-2.000;2022-11-20T13:57:53;99945.19;;;8.84;100.00
55301;BME280;58302;51.446;-2.000;2022-11-20T14:00:25;99937.59;;;8.76;100.00
55301;BME280;58302;51.446;-2.000;2022-11-20T14:05:40;99930.47;;;8.59;100.00
55301;BME280;58302;51.446;-2.000;2022-11-20T14:08:23;99937.47;;;8.50;100.00
55301;BME280;58302;51.446;-2.000;2022-11-20T14:10:50;99928.78;;;8.43;100.00
55301;BME280;58302;51.446;-2.000;2022-11-20T14:13:20;99940.59;;;8.27;100.00
55301;BME280;58302;51.446;-2.000;2022-11-20T14:15:46;99937.28;;;8.14;100.00
55301;BME280;58302;51.446;-2.000;2022-11-20T14:18:15;99949.13;;;8.03;100.00
55301;BME280;58302;51.446;-2.000;2022-11-20T14:20:42;99933.66;;;7.99;100.00
55301;BME280;58302;51.446;-2.000;2022-11-20T14:23:10;99934.97;;;7.96;100.00
55301;BME280;58302;51.446;-2.000;2022-11-20T14:25:36;99921.28;;;8.08;100.00
55301;BME280;58302;51.446;-2.000;2022-11-20T14:28:03;99922.69;;;8.21;100.00
55301;BME280;58302;51.446;-2.000;2022-11-20T14:30:43;99932.94;;;8.13;100.00
55301;BME280;58302;51.446;-2.000;2022-11-20T14:33:12;99937.78;;;8.11;100.00
55301;BME280;58302;51.446;-2.000;2022-11-20T14:35:46;99938.63;;;8.17;100.00
55301;BME280;58302;51.446;-2.000;2022-11-20T14:38:15;99944.94;;;8.33;100.00
55301;BME280;58302;51.446;-2.000;2022-11-20T14:40:42;99940.69;;;8.42;100.00
55301;BME280;58302;51.446;-2.000;2022-11-20T14:45:46;99916.50;;;8.25;100.00